sensor_id;sensor_type;location;lat;lon;timestamp;P1;durP1;ratioP1;P2;durP2;ratioP2
13832;SDS011;6987;19.472;-99.276;2023-03-16T00:00:09;9.80;;;8.80;;
13832;SDS011;6987;19.472;-99.276;2023-03-16T00:02:38;9.52;;;8.60;;
13832;SDS011;6987;19.472;-99.276;2023-03-16T00:05:08;9.80;;;8.25;;
13832;SDS011;6987;19.472;-99.276;2023-03-16T00:07:37;10.05;;;8.93;;
13832;SDS011;6987;19.472;-99.276;2023-03-16T00:10:06;8.15;;;7.47;;
13832;SDS011;6987;19.472;-99.276;2023-03-16T00:12:37;10.15;;;9.35;;
13832;SDS011;6987;19.472;-99.276;2023-03-16T00:15:10;10.15;;;9.23;;
13832;SDS011;6987;19.472;-99.276;2023-03-16T00:17:39;17.50;;;9.98;;
13832;SDS011;6987;19.472;-99.276;2023-03-16T00:20:13;14.15;;;9.90;;
13832;SDS011;6987;19.472;-99.276;2023-03-16T00:22:43;10.55;;;9.45;;
13832;SDS011;6987;19.472;-99.276;2023-03-16T00:25:13;9.40;;;8.60;;
13832;SDS011;6987;19.472;-99.276;2023-03-16T00:27:42;10.75;;;9.63;;
13832;SDS011;6987;19.472;-99.276;2023-03-16T00:30:13;10.85;;;8.32;;
13832;SDS011;6987;19.472;-99.276;2023-03-16T00:32:42;10.85;;;9.75;;
13832;SDS011;6987;19.472;-99.276;2023-03-16T00:35:10;9.38;;;8.43;;
13832;SDS011;6987;19.472;-99.276;2023-03-16T00:37:40;11.20;;;9.07;;
13832;SDS011;6987;19.472;-99.276;2023-03-16T00:40:09;10.43;;;9.48;;
13832;SDS011;6987;19.472;-99.276;2023-03-16T00:42:39;9.73;;;8.82;;
13832;SDS011;6987;19.472;-99.276;2023-03-16T00:45:08;11.20;;;9.93;;
13832;SDS011;6987;19.472;-99.276;2023-03-16T00:47:39;9.85;;;8.95;;
13832;SDS011;6987;19.472;-99.276;2023-03-16T00:50:09;10.45;;;8.15;;
13832;SDS011;6987;19.472;-99.276;2023-03-16T00:52:38;10.07;;;9.13;;
13832;SDS011;6987;19.472;-99.276;2023-03-16T00:55:07;10.90;;;9.77;;
13832;SDS011;6987;19.472;-99.276;2023-03-16T00:57:36;11.35;;;10.25;;
13832;SDS011;6987;19.472;-99.276;2023-03-16T01:00:05;10.38;;;9.38;;
13832;SDS011;6987;19.472;-99.276;2023-03-16T01:02:39;15.23;;;10.68;;
13832;SDS011;6987;19.472;-99.276;2023-03-16T01:05:10;15.48;;;10.82;;
13832;SDS011;6987;19.472;-99.276;2023-03-16T01:07:40;13.77;;;10.32;;
13832;SDS011;6987;19.472;-99.276;2023-03-16T01:10:10;14.13;;;11.60;;
13832;SDS011;6987;19.472;-99.276;2023-03-16T01:12:39;11.68;;;10.48;;
13832;SDS011;6987;19.472;-99.276;2023-03-16T01:15:10;11.27;;;10.23;;
13832;SDS011;6987;19.472;-99.276;2023-03-16T01:17:40;12.77;;;10.80;;
13832;SDS011;6987;19.472;-99.276;2023-03-16T01:20:10;12.07;;;10.82;;
13832;SDS011;6987;19.472;-99.276;2023-03-16T01:22:40;12.30;;;11.05;;
13832;SDS011;6987;19.472;-99.276;2023-03-16T01:25:10;16.50;;;11.45;;
13832;SDS011;6987;19.472;-99.276;2023-03-16T01:27:39;14.57;;;11.68;;
13832;SDS011;6987;19.472;-99.276;2023-03-16T01:30:09;11.85;;;10.85;;
13832;SDS011;6987;19.472;-99.276;2023-03-16T01:32:40;13.10;;;11.68;;
13832;SDS011;6987;19.472;-99.276;2023-03-16T01:35:09;12.15;;;11.00;;
13832;SDS011;6987;19.472;-99.276;2023-03-16T01:37:38;14.23;;;11.25;;
13832;SDS011;6987;19.472;-99.276;2023-03-16T01:40:08;12.50;;;11.10;;
13832;SDS011;6987;19.472;-99.276;2023-03-16T01:42:46;12.57;;;10.95;;
13832;SDS011;6987;19.472;-99.276;2023-03-16T01:48:05;12.45;;;11.35;;
13832;SDS011;6987;19.472;-99.276;2023-03-16T01:50:34;11.93;;;10.82;;
13832;SDS011;6987;19.472;-99.276;2023-03-16T01:53:03;14.45;;;10.98;;
13832;SDS011;6987;19.472;-99.276;2023-03-16T01:55:32;12.15;;;11.05;;
13832;SDS011;6987;19.472;-99.276;2023-03-16T01:58:01;12.45;;;11.35;;
13832;SDS011;6987;19.472;-99.276;2023-03-16T02:00:30;12.30;;;11.20;;
13832;SDS011;6987;19.472;-99.276;2023-03-16T02:03:02;11.88;;;10.77;;
13832;SDS011;6987;19.472;-99.276;2023-03-16T02:05:36;12.10;;;10.68;;
13832;SDS011;6987;19.472;-99.276;2023-03-16T02:08:06;12.73;;;11.50;;
13832;SDS011;6987;19.472;-99.276;2023-03-16T02:10:37;12.00;;;11.10;;
13832;SDS011;6987;19.472;-99.276;2023-03-16T02:13:06;11.75;;;10.60;;
13832;SDS011;6987;19.472;-99.276;2023-03-16T02:15:35;11.80;;;10.80;;
13832;SDS011;6987;19.472;-99.276;2023-03-16T02:18:05;12.38;;;11.30;;
13832;SDS011;6987;19.472;-99.276;2023-03-16T02:20:38;11.45;;;10.20;;
13832;SDS011;6987;19.472;-99.276;2023-03-16T02:23:10;11.85;;;10.75;;
13832;SDS011;6987;19.472;-99.276;2023-03-16T02:25:44;11.88;;;10.88;;
13832;SDS011;6987;19.472;-99.276;2023-03-16T02:28:17;12.50;;;10.73;;
13832;SDS011;6987;19.472;-99.276;2023-03-16T02:30:49;11.88;;;10.85;;
13832;SDS011;6987;19.472;-99.276;2023-03-16T02:33:18;12.32;;;11.15;;
13832;SDS011;6987;19.472;-99.276;2023-03-16T02:35:47;12.38;;;11.20;;
13832;SDS011;6987;19.472;-99.276;2023-03-16T02:38:16;12.75;;;11.45;;
13832;SDS011;6987;19.472;-99.276;2023-03-16T02:40:45;12.95;;;11.75;;
13832;SDS011;6987;19.472;-99.276;2023-03-16T02:43:21;14.35;;;11.27;;
13832;SDS011;6987;19.472;-99.276;2023-03-16T02:45:54;13.07;;;10.95;;
13832;SDS011;6987;19.472;-99.276;2023-03-16T02:48:26;12.32;;;10.90;;
13832;SDS011;6987;19.472;-99.276;2023-03-16T02:50:57;17.23;;;11.77;;
13832;SDS011;6987;19.472;-99.276;2023-03-16T02:53:26;12.23;;;11.02;;
13832;SDS011;6987;19.472;-99.276;2023-03-16T02:55:54;13.55;;;11.85;;
13832;SDS011;6987;19.472;-99.276;2023-03-16T02:58:23;13.52;;;10.48;;
13832;SDS011;6987;19.472;-99.276;2023-03-16T03:00:54;12.43;;;11.02;;
13832;SDS011;6987;19.472;-99.276;2023-03-16T03:03:23;12.60;;;11.13;;
13832;SDS011;6987;19.472;-99.276;2023-03-16T03:05:52;11.02;;;10.02;;
13832;SDS011;6987;19.472;-99.276;2023-03-16T03:08:22;10.18;;;9.18;;
13832;SDS011;6987;19.472;-99.276;2023-03-16T03:10:50;10.43;;;9.52;;
13832;SDS011;6987;19.472;-99.276;2023-03-16T03:13:20;10.25;;;9.30;;
13832;SDS011;6987;19.472;-99.276;2023-03-16T03:15:49;10.00;;;9.05;;
13832;SDS011;6987;19.472;-99.276;2023-03-16T03:18:20;11.50;;;10.20;;
13832;SDS011;6987;19.472;-99.276;2023-03-16T03:20:49;12.02;;;10.70;;
13832;SDS011;6987;19.472;-99.276;2023-03-16T03:23:19;11.95;;;10.18;;
13832;SDS011;6987;19.472;-99.276;2023-03-16T03:25:48;11.38;;;10.02;;
13832;SDS011;6987;19.472;-99.276;2023-03-16T03:28:18;21.35;;;11.60;;
13832;SDS011;6987;19.472;-99.276;2023-03-16T03:30:47;12.95;;;9.82;;
13832;SDS011;6987;19.472;-99.276;2023-03-16T03:33:16;12.05;;;10.27;;
13832;SDS011;6987;19.472;-99.276;2023-03-16T03:35:52;7.03;;;6.43;;
13832;SDS011;6987;19.472;-99.276;2023-03-16T03:38:21;11.13;;;6.20;;
13832;SDS011;6987;19.472;-99.276;2023-03-16T03:40:51;3.97;;;3.78;;
13832;SDS011;6987;19.472;-99.276;2023-03-16T03:43:23;3.53;;;3.17;;
13832;SDS011;6987;19.472;-99.276;2023-03-16T03:45:54;2.78;;;2.60;;
13832;SDS011;6987;19.472;-99.276;2023-03-16T03:48:24;2.92;;;2.70;;
13832;SDS011;6987;19.472;-99.276;2023-03-16T03:50:55;2.20;;;2.00;;
13832;SDS011;6987;19.472;-99.276;2023-03-16T03:53:24;4.38;;;1.70;;
13832;SDS011;6987;19.472;-99.276;2023-03-16T03:55:53;2.20;;;2.00;;
13832;SDS011;6987;19.472;-99.276;2023-03-16T03:58:23;1.52;;;1.50;;
13832;SDS011;6987;19.472;-99.276;2023-03-16T04:00:52;3.38;;;2.05;;
13832;SDS011;6987;19.472;-99.276;2023-03-16T04:03:21;1.90;;;1.65;;
13832;SDS011;6987;19.472;-99.276;2023-03-16T04:05:51;2.00;;;1.80;;
13832;SDS011;6987;19.472;-99.276;2023-03-16T04:08:22;2.10;;;2.00;;
13832;SDS011;6987;19.472;-99.276;2023-03-16T04:10:50;1.92;;;1.83;;
13832;SDS011;6987;19.472;-99.276;2023-03-16T04:13:19;1.95;;;1.85;;
13832;SDS011;6987;19.472;-99.276;2023-03-16T04:15:48;2.05;;;1.90;;
13832;SDS011;6987;19.472;-99.276;2023-03-16T04:18:23;6.38;;;2.35;;
13832;SDS011;6987;19.472;-99.276;2023-03-16T04:20:52;2.60;;;2.47;;
13832;SDS011;6987;19.472;-99.276;2023-03-16T04:23:22;2.42;;;2.17;;
13832;SDS011;6987;19.472;-99.276;2023-03-16T04:25:52;6.18;;;2.28;;
13832;SDS011;6987;19.472;-99.276;2023-03-16T04:28:21;2.60;;;2.40;;
13832;SDS011;6987;19.472;-99.276;2023-03-16T04:30:51;2.17;;;2.08;;
13832;SDS011;6987;19.472;-99.276;2023-03-16T04:33:20;2.20;;;2.05;;
13832;SDS011;6987;19.472;-99.276;2023-03-16T04:35:49;1.98;;;1.90;;
13832;SDS011;6987;19.472;-99.276;2023-03-16T04:38:19;2.90;;;2.00;;
13832;SDS011;6987;19.472;-99.276;2023-03-16T04:40:49;2.63;;;2.30;;
13832;SDS011;6987;19.472;-99.276;2023-03-16T04:43:18;2.10;;;2.00;;
13832;SDS011;6987;19.472;-99.276;2023-03-16T04:45:47;2.00;;;1.90;;
13832;SDS011;6987;19.472;-99.276;2023-03-16T04:48:16;2.10;;;2.00;;
13832;SDS011;6987;19.472;-99.276;2023-03-16T04:50:46;2.70;;;2.47;;
13832;SDS011;6987;19.472;-99.276;2023-03-16T04:53:16;4.03;;;2.17;;
13832;SDS011;6987;19.472;-99.276;2023-03-16T04:55:45;2.47;;;2.38;;
13832;SDS011;6987;19.472;-99.276;2023-03-16T04:58:15;2.13;;;2.03;;
13832;SDS011;6987;19.472;-99.276;2023-03-16T05:00:44;2.17;;;2.08;;
13832;SDS011;6987;19.472;-99.276;2023-03-16T05:03:13;2.92;;;2.72;;
13832;SDS011;6987;19.472;-99.276;2023-03-16T05:05:42;2.45;;;2.33;;
13832;SDS011;6987;19.472;-99.276;2023-03-16T05:08:12;2.10;;;2.00;;
13832;SDS011;6987;19.472;-99.276;2023-03-16T05:10:40;3.15;;;2.90;;
13832;SDS011;6987;19.472;-99.276;2023-03-16T05:13:12;2.53;;;2.40;;
13832;SDS011;6987;19.472;-99.276;2023-03-16T05:15:43;2.88;;;2.58;;
13832;SDS011;6987;19.472;-99.276;2023-03-16T05:18:12;2.95;;;2.75;;
13832;SDS011;6987;19.472;-99.276;2023-03-16T05:20:41;2.40;;;2.30;;
13832;SDS011;6987;19.472;-99.276;2023-03-16T05:23:10;2.80;;;2.70;;
13832;SDS011;6987;19.472;-99.276;2023-03-16T05:25:39;3.25;;;2.95;;
13832;SDS011;6987;19.472;-99.276;2023-03-16T05:28:08;2.67;;;2.47;;
13832;SDS011;6987;19.472;-99.276;2023-03-16T05:30:37;2.75;;;2.65;;
13832;SDS011;6987;19.472;-99.276;2023-03-16T05:33:08;4.25;;;3.20;;
13832;SDS011;6987;19.472;-99.276;2023-03-16T05:35:38;6.15;;;3.00;;
13832;SDS011;6987;19.472;-99.276;2023-03-16T05:38:07;3.22;;;3.03;;
13832;SDS011;6987;19.472;-99.276;2023-03-16T05:40:37;3.22;;;3.03;;
13832;SDS011;6987;19.472;-99.276;2023-03-16T05:43:07;3.88;;;3.58;;
13832;SDS011;6987;19.472;-99.276;2023-03-16T05:45:35;3.60;;;3.28;;
13832;SDS011;6987;19.472;-99.276;2023-03-16T05:48:05;4.15;;;2.97;;
13832;SDS011;6987;19.472;-99.276;2023-03-16T05:50:35;3.45;;;3.25;;
13832;SDS011;6987;19.472;-99.276;2023-03-16T05:53:04;4.55;;;2.88;;
13832;SDS011;6987;19.472;-99.276;2023-03-16T05:55:33;3.72;;;3.33;;
13832;SDS011;6987;19.472;-99.276;2023-03-16T05:58:02;3.15;;;3.00;;
13832;SDS011;6987;19.472;-99.276;2023-03-16T06:00:32;5.95;;;3.38;;
13832;SDS011;6987;19.472;-99.276;2023-03-16T06:03:04;4.13;;;3.60;;
13832;SDS011;6987;19.472;-99.276;2023-03-16T06:05:33;3.58;;;3.28;;
13832;SDS011;6987;19.472;-99.276;2023-03-16T06:08:03;3.22;;;3.03;;
13832;SDS011;6987;19.472;-99.276;2023-03-16T06:10:33;3.80;;;3.50;;
13832;SDS011;6987;19.472;-99.276;2023-03-16T06:13:02;4.07;;;3.78;;
13832;SDS011;6987;19.472;-99.276;2023-03-16T06:15:31;3.42;;;3.17;;
13832;SDS011;6987;19.472;-99.276;2023-03-16T06:18:00;3.97;;;3.42;;
13832;SDS011;6987;19.472;-99.276;2023-03-16T06:20:30;4.30;;;4.00;;
13832;SDS011;6987;19.472;-99.276;2023-03-16T06:22:59;4.45;;;4.05;;
13832;SDS011;6987;19.472;-99.276;2023-03-16T06:25:30;4.22;;;3.92;;
13832;SDS011;6987;19.472;-99.276;2023-03-16T06:27:59;3.47;;;3.17;;
13832;SDS011;6987;19.472;-99.276;2023-03-16T06:30:28;3.65;;;3.35;;
13832;SDS011;6987;19.472;-99.276;2023-03-16T06:32:58;3.50;;;3.30;;
13832;SDS011;6987;19.472;-99.276;2023-03-16T06:35:27;3.47;;;3.20;;
13832;SDS011;6987;19.472;-99.276;2023-03-16T06:37:56;4.32;;;3.85;;
13832;SDS011;6987;19.472;-99.276;2023-03-16T06:40:25;3.97;;;3.60;;
13832;SDS011;6987;19.472;-99.276;2023-03-16T06:42:56;3.95;;;3.75;;
13832;SDS011;6987;19.472;-99.276;2023-03-16T06:45:25;3.97;;;3.67;;
13832;SDS011;6987;19.472;-99.276;2023-03-16T06:47:54;3.50;;;3.20;;
13832;SDS011;6987;19.472;-99.276;2023-03-16T06:50:23;3.83;;;3.63;;
13832;SDS011;6987;19.472;-99.276;2023-03-16T06:52:52;4.45;;;4.15;;
13832;SDS011;6987;19.472;-99.276;2023-03-16T06:55:21;3.47;;;3.28;;
13832;SDS011;6987;19.472;-99.276;2023-03-16T06:57:50;4.07;;;3.78;;
13832;SDS011;6987;19.472;-99.276;2023-03-16T07:00:21;4.65;;;4.25;;
13832;SDS011;6987;19.472;-99.276;2023-03-16T07:02:50;4.05;;;3.75;;
13832;SDS011;6987;19.472;-99.276;2023-03-16T07:05:19;4.55;;;3.72;;
13832;SDS011;6987;19.472;-99.276;2023-03-16T07:07:48;4.70;;;3.55;;
13832;SDS011;6987;19.472;-99.276;2023-03-16T07:10:17;3.50;;;3.30;;
13832;SDS011;6987;19.472;-99.276;2023-03-16T07:12:48;3.42;;;3.22;;
13832;SDS011;6987;19.472;-99.276;2023-03-16T07:15:17;3.60;;;3.25;;
13832;SDS011;6987;19.472;-99.276;2023-03-16T07:17:48;4.05;;;3.55;;
13832;SDS011;6987;19.472;-99.276;2023-03-16T07:20:17;4.50;;;4.20;;
13832;SDS011;6987;19.472;-99.276;2023-03-16T07:22:46;4.10;;;3.80;;
13832;SDS011;6987;19.472;-99.276;2023-03-16T07:25:15;4.35;;;4.05;;
13832;SDS011;6987;19.472;-99.276;2023-03-16T07:27:44;4.38;;;3.97;;
13832;SDS011;6987;19.472;-99.276;2023-03-16T07:30:13;5.32;;;4.18;;
13832;SDS011;6987;19.472;-99.276;2023-03-16T07:32:42;4.43;;;4.15;;
13832;SDS011;6987;19.472;-99.276;2023-03-16T07:35:13;4.40;;;4.00;;
13832;SDS011;6987;19.472;-99.276;2023-03-16T07:37:42;4.63;;;4.20;;
13832;SDS011;6987;19.472;-99.276;2023-03-16T07:40:12;4.05;;;3.83;;
13832;SDS011;6987;19.472;-99.276;2023-03-16T07:42:41;5.30;;;5.00;;
13832;SDS011;6987;19.472;-99.276;2023-03-16T07:45:10;4.90;;;4.40;;
13832;SDS011;6987;19.472;-99.276;2023-03-16T07:47:40;5.03;;;4.63;;
13832;SDS011;6987;19.472;-99.276;2023-03-16T07:50:09;5.20;;;4.40;;
13832;SDS011;6987;19.472;-99.276;2023-03-16T07:52:42;5.20;;;4.80;;
13832;SDS011;6987;19.472;-99.276;2023-03-16T07:55:11;4.90;;;4.40;;
13832;SDS011;6987;19.472;-99.276;2023-03-16T07:57:40;4.70;;;4.30;;
13832;SDS011;6987;19.472;-99.276;2023-03-16T08:00:13;4.63;;;3.97;;
13832;SDS011;6987;19.472;-99.276;2023-03-16T08:02:45;4.70;;;4.30;;
13832;SDS011;6987;19.472;-99.276;2023-03-16T08:05:14;4.78;;;4.38;;
13832;SDS011;6987;19.472;-99.276;2023-03-16T08:07:44;4.50;;;4.10;;
13832;SDS011;6987;19.472;-99.276;2023-03-16T08:10:14;4.68;;;4.35;;
13832;SDS011;6987;19.472;-99.276;2023-03-16T08:12:42;4.50;;;4.20;;
13832;SDS011;6987;19.472;-99.276;2023-03-16T08:15:11;5.03;;;4.63;;
13832;SDS011;6987;19.472;-99.276;2023-03-16T08:17:40;4.72;;;4.30;;
13832;SDS011;6987;19.472;-99.276;2023-03-16T08:20:09;4.68;;;4.32;;
13832;SDS011;6987;19.472;-99.276;2023-03-16T08:22:39;4.32;;;4.00;;
13832;SDS011;6987;19.472;-99.276;2023-03-16T08:25:13;4.70;;;4.30;;
13832;SDS011;6987;19.472;-99.276;2023-03-16T08:27:44;5.82;;;4.57;;
13832;SDS011;6987;19.472;-99.276;2023-03-16T08:30:14;5.88;;;4.50;;
13832;SDS011;6987;19.472;-99.276;2023-03-16T08:32:43;5.18;;;4.78;;
13832;SDS011;6987;19.472;-99.276;2023-03-16T08:35:13;5.32;;;4.90;;
13832;SDS011;6987;19.472;-99.276;2023-03-16T08:37:43;5.22;;;4.88;;
13832;SDS011;6987;19.472;-99.276;2023-03-16T08:40:14;4.60;;;4.32;;
13832;SDS011;6987;19.472;-99.276;2023-03-16T08:42:47;5.85;;;4.68;;
13832;SDS011;6987;19.472;-99.276;2023-03-16T08:45:17;5.57;;;4.88;;
13832;SDS011;6987;19.472;-99.276;2023-03-16T08:47:46;4.70;;;4.45;;
13832;SDS011;6987;19.472;-99.276;2023-03-16T08:50:15;5.05;;;4.65;;
13832;SDS011;6987;19.472;-99.276;2023-03-16T08:52:44;4.72;;;4.35;;
13832;SDS011;6987;19.472;-99.276;2023-03-16T08:55:16;5.15;;;4.75;;
13832;SDS011;6987;19.472;-99.276;2023-03-16T08:57:45;5.53;;;5.03;;
13832;SDS011;6987;19.472;-99.276;2023-03-16T09:00:14;5.03;;;4.72;;
13832;SDS011;6987;19.472;-99.276;2023-03-16T09:02:45;4.70;;;4.40;;
13832;SDS011;6987;19.472;-99.276;2023-03-16T09:05:14;5.18;;;4.78;;
13832;SDS011;6987;19.472;-99.276;2023-03-16T09:07:43;5.38;;;4.97;;
13832;SDS011;6987;19.472;-99.276;2023-03-16T09:10:12;4.63;;;4.35;;
13832;SDS011;6987;19.472;-99.276;2023-03-16T09:12:43;4.68;;;4.38;;
13832;SDS011;6987;19.472;-99.276;2023-03-16T09:15:12;4.78;;;4.47;;
13832;SDS011;6987;19.472;-99.276;2023-03-16T09:17:41;5.25;;;4.85;;
13832;SDS011;6987;19.472;-99.276;2023-03-16T09:20:11;5.10;;;4.60;;
13832;SDS011;6987;19.472;-99.276;2023-03-16T09:22:41;4.72;;;4.40;;
13832;SDS011;6987;19.472;-99.276;2023-03-16T09:25:10;5.80;;;5.32;;
13832;SDS011;6987;19.472;-99.276;2023-03-16T09:27:39;5.28;;;4.78;;
13832;SDS011;6987;19.472;-99.276;2023-03-16T09:30:11;6.25;;;5.60;;
13832;SDS011;6987;19.472;-99.276;2023-03-16T09:32:41;5.05;;;4.65;;
13832;SDS011;6987;19.472;-99.276;2023-03-16T09:35:13;6.00;;;5.45;;
13832;SDS011;6987;19.472;-99.276;2023-03-16T09:37:42;6.28;;;5.03;;
13832;SDS011;6987;19.472;-99.276;2023-03-16T09:40:16;4.57;;;4.28;;
13832;SDS011;6987;19.472;-99.276;2023-03-16T09:42:49;4.72;;;4.38;;
13832;SDS011;6987;19.472;-99.276;2023-03-16T09:45:23;5.30;;;4.80;;
13832;SDS011;6987;19.472;-99.276;2023-03-16T09:47:54;6.82;;;5.15;;
13832;SDS011;6987;19.472;-99.276;2023-03-16T09:50:26;5.00;;;4.60;;
13832;SDS011;6987;19.472;-99.276;2023-03-16T09:52:56;4.68;;;4.38;;
13832;SDS011;6987;19.472;-99.276;2023-03-16T09:55:28;5.22;;;4.80;;
13832;SDS011;6987;19.472;-99.276;2023-03-16T09:57:58;5.68;;;5.20;;
13832;SDS011;6987;19.472;-99.276;2023-03-16T10:00:30;5.32;;;4.95;;
13832;SDS011;6987;19.472;-99.276;2023-03-16T10:05:47;6.35;;;4.93;;
13832;SDS011;6987;19.472;-99.276;2023-03-16T10:08:19;4.85;;;4.45;;
13832;SDS011;6987;19.472;-99.276;2023-03-16T10:10:54;5.28;;;4.93;;
13832;SDS011;6987;19.472;-99.276;2023-03-16T10:13:28;7.40;;;5.65;;
13832;SDS011;6987;19.472;-99.276;2023-03-16T10:16:00;4.85;;;4.55;;
13832;SDS011;6987;19.472;-99.276;2023-03-16T10:18:31;5.45;;;4.13;;
13832;SDS011;6987;19.472;-99.276;2023-03-16T10:21:03;4.90;;;4.50;;
13832;SDS011;6987;19.472;-99.276;2023-03-16T10:23:33;4.50;;;4.15;;
13832;SDS011;6987;19.472;-99.276;2023-03-16T10:26:03;4.32;;;4.13;;
13832;SDS011;6987;19.472;-99.276;2023-03-16T10:28:34;4.35;;;4.05;;
13832;SDS011;6987;19.472;-99.276;2023-03-16T10:31:08;4.88;;;4.57;;
13832;SDS011;6987;19.472;-99.276;2023-03-16T10:33:37;5.15;;;4.70;;
13832;SDS011;6987;19.472;-99.276;2023-03-16T10:36:13;4.32;;;4.03;;
13832;SDS011;6987;19.472;-99.276;2023-03-16T10:38:44;4.40;;;4.10;;
13832;SDS011;6987;19.472;-99.276;2023-03-16T10:41:19;4.60;;;4.22;;
13832;SDS011;6987;19.472;-99.276;2023-03-16T10:43:49;4.97;;;4.55;;
13832;SDS011;6987;19.472;-99.276;2023-03-16T10:46:20;4.07;;;3.80;;
13832;SDS011;6987;19.472;-99.276;2023-03-16T10:48:54;5.20;;;4.70;;
13832;SDS011;6987;19.472;-99.276;2023-03-16T10:51:25;4.55;;;4.22;;
13832;SDS011;6987;19.472;-99.276;2023-03-16T10:53:56;6.88;;;4.43;;
13832;SDS011;6987;19.472;-99.276;2023-03-16T10:56:31;5.53;;;4.38;;
13832;SDS011;6987;19.472;-99.276;2023-03-16T10:59:11;4.32;;;3.90;;
13832;SDS011;6987;19.472;-99.276;2023-03-16T11:01:46;5.13;;;4.63;;
13832;SDS011;6987;19.472;-99.276;2023-03-16T11:04:17;4.53;;;4.22;;
13832;SDS011;6987;19.472;-99.276;2023-03-16T11:06:47;5.03;;;4.55;;
13832;SDS011;6987;19.472;-99.276;2023-03-16T11:09:21;4.10;;;3.80;;
13832;SDS011;6987;19.472;-99.276;2023-03-16T11:11:52;3.95;;;3.65;;
13832;SDS011;6987;19.472;-99.276;2023-03-16T11:14:22;3.78;;;3.47;;
13832;SDS011;6987;19.472;-99.276;2023-03-16T11:16:58;3.83;;;3.65;;
13832;SDS011;6987;19.472;-99.276;2023-03-16T11:19:28;4.50;;;4.18;;
13832;SDS011;6987;19.472;-99.276;2023-03-16T11:21:59;6.38;;;3.58;;
13832;SDS011;6987;19.472;-99.276;2023-03-16T11:24:32;4.35;;;4.00;;
13832;SDS011;6987;19.472;-99.276;2023-03-16T11:27:03;4.43;;;4.03;;
13832;SDS011;6987;19.472;-99.276;2023-03-16T11:29:38;4.47;;;4.07;;
13832;SDS011;6987;19.472;-99.276;2023-03-16T11:32:12;4.15;;;3.75;;
13832;SDS011;6987;19.472;-99.276;2023-03-16T11:34:43;5.32;;;3.97;;
13832;SDS011;6987;19.472;-99.276;2023-03-16T11:37:15;3.83;;;3.60;;
13832;SDS011;6987;19.472;-99.276;2023-03-16T11:39:55;4.03;;;3.72;;
13832;SDS011;6987;19.472;-99.276;2023-03-16T11:42:29;3.85;;;3.55;;
13832;SDS011;6987;19.472;-99.276;2023-03-16T11:45:08;4.18;;;3.88;;
13832;SDS011;6987;19.472;-99.276;2023-03-16T11:47:48;3.70;;;3.50;;
13832;SDS011;6987;19.472;-99.276;2023-03-16T11:50:19;4.00;;;3.72;;
13832;SDS011;6987;19.472;-99.276;2023-03-16T11:52:52;3.67;;;3.47;;
13832;SDS011;6987;19.472;-99.276;2023-03-16T11:55:25;3.65;;;3.45;;
13832;SDS011;6987;19.472;-99.276;2023-03-16T11:57:59;3.45;;;3.10;;
13832;SDS011;6987;19.472;-99.276;2023-03-16T12:00:32;3.97;;;3.40;;
13832;SDS011;6987;19.472;-99.276;2023-03-16T12:03:19;4.22;;;3.95;;
13832;SDS011;6987;19.472;-99.276;2023-03-16T12:05:54;3.90;;;3.53;;
13832;SDS011;6987;19.472;-99.276;2023-03-16T12:08:29;4.65;;;4.28;;
13832;SDS011;6987;19.472;-99.276;2023-03-16T12:11:03;3.40;;;3.20;;
13832;SDS011;6987;19.472;-99.276;2023-03-16T12:13:37;3.72;;;3.50;;
13832;SDS011;6987;19.472;-99.276;2023-03-16T12:16:10;3.90;;;3.70;;
13832;SDS011;6987;19.472;-99.276;2023-03-16T12:18:44;5.20;;;3.55;;
13832;SDS011;6987;19.472;-99.276;2023-03-16T12:21:14;3.67;;;3.38;;
13832;SDS011;6987;19.472;-99.276;2023-03-16T12:23:49;3.72;;;3.42;;
13832;SDS011;6987;19.472;-99.276;2023-03-16T12:26:20;4.13;;;3.55;;
13832;SDS011;6987;19.472;-99.276;2023-03-16T12:28:50;3.60;;;3.40;;
13832;SDS011;6987;19.472;-99.276;2023-03-16T12:31:21;4.00;;;3.70;;
13832;SDS011;6987;19.472;-99.276;2023-03-16T12:33:55;4.43;;;3.50;;
13832;SDS011;6987;19.472;-99.276;2023-03-16T12:36:35;3.95;;;3.47;;
13832;SDS011;6987;19.472;-99.276;2023-03-16T12:39:06;3.40;;;3.13;;
13832;SDS011;6987;19.472;-99.276;2023-03-16T12:41:38;3.67;;;3.47;;
13832;SDS011;6987;19.472;-99.276;2023-03-16T12:44:11;3.70;;;3.38;;
13832;SDS011;6987;19.472;-99.276;2023-03-16T12:46:46;4.53;;;4.22;;
13832;SDS011;6987;19.472;-99.276;2023-03-16T12:49:19;4.20;;;3.83;;
13832;SDS011;6987;19.472;-99.276;2023-03-16T12:51:57;3.50;;;3.30;;
13832;SDS011;6987;19.472;-99.276;2023-03-16T12:54:26;4.55;;;4.15;;
13832;SDS011;6987;19.472;-99.276;2023-03-16T12:56:59;4.55;;;3.42;;
13832;SDS011;6987;19.472;-99.276;2023-03-16T12:59:35;7.07;;;4.28;;
13832;SDS011;6987;19.472;-99.276;2023-03-16T13:02:07;4.15;;;3.83;;
13832;SDS011;6987;19.472;-99.276;2023-03-16T13:04:42;4.13;;;3.83;;
13832;SDS011;6987;19.472;-99.276;2023-03-16T13:07:15;3.63;;;3.38;;
13832;SDS011;6987;19.472;-99.276;2023-03-16T13:09:46;3.42;;;3.22;;
13832;SDS011;6987;19.472;-99.276;2023-03-16T13:12:23;3.72;;;3.53;;
13832;SDS011;6987;19.472;-99.276;2023-03-16T13:14:52;6.50;;;4.22;;
13832;SDS011;6987;19.472;-99.276;2023-03-16T13:17:22;4.20;;;3.78;;
13832;SDS011;6987;19.472;-99.276;2023-03-16T13:20:00;3.45;;;3.25;;
13832;SDS011;6987;19.472;-99.276;2023-03-16T13:22:40;8.23;;;3.95;;
13832;SDS011;6987;19.472;-99.276;2023-03-16T13:25:13;3.55;;;3.25;;
13832;SDS011;6987;19.472;-99.276;2023-03-16T13:27:44;4.22;;;3.85;;
13832;SDS011;6987;19.472;-99.276;2023-03-16T13:30:24;4.43;;;4.13;;
13832;SDS011;6987;19.472;-99.276;2023-03-16T13:32:56;4.38;;;3.60;;
13832;SDS011;6987;19.472;-99.276;2023-03-16T13:35:29;4.07;;;3.88;;
13832;SDS011;6987;19.472;-99.276;2023-03-16T13:38:02;4.13;;;3.80;;
13832;SDS011;6987;19.472;-99.276;2023-03-16T13:40:32;4.93;;;4.55;;
13832;SDS011;6987;19.472;-99.276;2023-03-16T13:43:03;4.25;;;3.97;;
13832;SDS011;6987;19.472;-99.276;2023-03-16T13:45:33;4.10;;;3.90;;
13832;SDS011;6987;19.472;-99.276;2023-03-16T13:48:05;4.47;;;4.07;;
13832;SDS011;6987;19.472;-99.276;2023-03-16T13:50:36;7.05;;;4.10;;
13832;SDS011;6987;19.472;-99.276;2023-03-16T13:53:09;4.68;;;4.28;;
13832;SDS011;6987;19.472;-99.276;2023-03-16T13:55:42;4.10;;;3.80;;
13832;SDS011;6987;19.472;-99.276;2023-03-16T13:58:17;4.28;;;3.97;;
13832;SDS011;6987;19.472;-99.276;2023-03-16T14:00:47;5.13;;;4.22;;
13832;SDS011;6987;19.472;-99.276;2023-03-16T14:03:16;4.30;;;4.00;;
13832;SDS011;6987;19.472;-99.276;2023-03-16T14:05:48;4.00;;;3.80;;
13832;SDS011;6987;19.472;-99.276;2023-03-16T14:08:19;4.82;;;4.32;;
13832;SDS011;6987;19.472;-99.276;2023-03-16T14:10:48;4.47;;;4.15;;
13832;SDS011;6987;19.472;-99.276;2023-03-16T14:16:06;5.70;;;5.20;;
13832;SDS011;6987;19.472;-99.276;2023-03-16T14:18:39;9.63;;;5.13;;
13832;SDS011;6987;19.472;-99.276;2023-03-16T14:21:13;5.50;;;5.10;;
13832;SDS011;6987;19.472;-99.276;2023-03-16T14:23:43;6.40;;;5.80;;
13832;SDS011;6987;19.472;-99.276;2023-03-16T14:26:12;5.55;;;5.05;;
13832;SDS011;6987;19.472;-99.276;2023-03-16T14:28:52;5.65;;;5.18;;
13832;SDS011;6987;19.472;-99.276;2023-03-16T14:31:22;6.20;;;5.28;;
13832;SDS011;6987;19.472;-99.276;2023-03-16T14:33:59;6.00;;;5.50;;
13832;SDS011;6987;19.472;-99.276;2023-03-16T14:36:35;5.82;;;5.32;;
13832;SDS011;6987;19.472;-99.276;2023-03-16T14:39:11;5.80;;;5.40;;
13832;SDS011;6987;19.472;-99.276;2023-03-16T14:41:42;7.15;;;6.18;;
13832;SDS011;6987;19.472;-99.276;2023-03-16T14:44:16;7.15;;;6.45;;
13832;SDS011;6987;19.472;-99.276;2023-03-16T14:46:45;9.68;;;6.70;;
13832;SDS011;6987;19.472;-99.276;2023-03-16T14:49:19;10.20;;;7.40;;
13832;SDS011;6987;19.472;-99.276;2023-03-16T14:51:51;9.30;;;7.93;;
13832;SDS011;6987;19.472;-99.276;2023-03-16T14:54:21;6.82;;;6.22;;
13832;SDS011;6987;19.472;-99.276;2023-03-16T14:56:51;7.68;;;6.97;;